createdAt,value
2023-01-26T00:00:11.875Z,23.50
2023-01-26T00:02:40.449Z,21.33
2023-01-26T00:05:10.056Z,22.90
2023-01-26T00:07:42.850Z,22.15
2023-01-26T00:10:13.604Z,21.13
2023-01-26T00:12:42.421Z,19.10
2023-01-26T00:15:11.163Z,19.42
2023-01-26T00:17:39.568Z,20.73
2023-01-26T00:20:09.828Z,24.67
2023-01-26T00:22:38.613Z,20.00
2023-01-26T00:25:08.204Z,22.30
2023-01-26T00:27:38.006Z,21.95
2023-01-26T00:30:09.595Z,21.15
2023-01-26T00:32:38.903Z,21.88
2023-01-26T00:35:08.180Z,22.10
2023-01-26T00:37:38.388Z,20.55
2023-01-26T00:40:07.744Z,22.17
2023-01-26T00:42:37.890Z,21.77
2023-01-26T00:45:08.026Z,22.52
2023-01-26T00:47:36.596Z,21.55
2023-01-26T00:50:07.228Z,21.60
2023-01-26T00:52:35.749Z,22.23
2023-01-26T00:55:04.396Z,21.80
2023-01-26T00:57:32.868Z,21.83
2023-01-26T01:00:02.701Z,24.08
2023-01-26T01:02:32.893Z,20.73
2023-01-26T01:05:01.412Z,21.73
2023-01-26T01:07:30.435Z,21.17
2023-01-26T01:10:00.388Z,18.92
2023-01-26T01:12:29.024Z,19.98
2023-01-26T01:14:57.406Z,18.70
2023-01-26T01:17:28.675Z,20.83
2023-01-26T01:19:57.108Z,20.95
2023-01-26T01:22:25.623Z,18.42
2023-01-26T01:24:54.182Z,19.67
2023-01-26T01:27:22.601Z,20.17
2023-01-26T01:29:51.579Z,20.65
2023-01-26T01:32:20.713Z,18.88
2023-01-26T01:34:51.251Z,16.15
2023-01-26T01:37:20.226Z,20.13
2023-01-26T01:39:50.731Z,21.23
2023-01-26T01:42:19.184Z,20.52
2023-01-26T01:45:38.504Z,19.58
2023-01-26T01:48:16.091Z,18.50
2023-01-26T01:50:46.915Z,19.77
2023-01-26T01:53:24.582Z,18.85
2023-01-26T01:55:58.352Z,19.13
2023-01-26T01:58:28.057Z,18.67
2023-01-26T02:00:57.199Z,18.98
2023-01-26T02:03:26.876Z,19.10
2023-01-26T02:06:02.843Z,19.90
2023-01-26T02:08:35.537Z,19.65
2023-01-26T02:11:09.959Z,20.92
2023-01-26T02:13:39.094Z,19.77
2023-01-26T02:16:08.250Z,21.27
2023-01-26T02:18:36.910Z,19.60
2023-01-26T02:21:09.570Z,17.73
2023-01-26T02:24:09.032Z,20.23
2023-01-26T02:26:39.493Z,15.35
2023-01-26T02:29:12.485Z,17.30
2023-01-26T02:31:45.071Z,17.53
2023-01-26T02:34:13.617Z,17.75
2023-01-26T02:36:42.377Z,18.45
2023-01-26T02:39:29.344Z,19.55
2023-01-26T02:42:16.684Z,16.80
2023-01-26T02:44:46.073Z,15.90
2023-01-26T02:47:16.739Z,16.50
2023-01-26T02:49:48.083Z,15.80
2023-01-26T02:52:19.629Z,18.73
2023-01-26T02:55:11.182Z,15.88
2023-01-26T02:57:41.429Z,16.30
2023-01-26T03:00:13.123Z,15.40
2023-01-26T03:02:43.090Z,18.90
2023-01-26T03:05:12.062Z,18.20
2023-01-26T03:07:42.045Z,17.80
2023-01-26T03:10:12.616Z,17.92
2023-01-26T03:12:42.823Z,18.65
2023-01-26T03:15:30.438Z,18.67
2023-01-26T03:18:36.631Z,18.17
2023-01-26T03:21:25.437Z,16.37
2023-01-26T03:24:11.866Z,15.73
2023-01-26T03:26:58.913Z,15.37
2023-01-26T03:29:29.751Z,18.83
2023-01-26T03:32:01.208Z,19.52
2023-01-26T03:34:30.708Z,17.30
2023-01-26T03:36:59.795Z,16.60
2023-01-26T03:39:51.120Z,18.10
2023-01-26T03:42:37.151Z,18.17
2023-01-26T03:45:27.250Z,15.00
2023-01-26T03:48:26.056Z,16.03
2023-01-26T03:51:12.385Z,15.80
2023-01-26T03:53:58.449Z,15.00
2023-01-26T03:56:32.569Z,13.33
2023-01-26T03:59:15.264Z,14.43
2023-01-26T04:02:05.966Z,13.90
2023-01-26T04:04:53.891Z,15.27
2023-01-26T04:07:44.203Z,12.87
2023-01-26T04:10:13.079Z,14.83
2023-01-26T04:12:42.002Z,14.83
2023-01-26T04:15:33.659Z,15.40
2023-01-26T04:18:27.550Z,15.47
2023-01-26T04:21:14.410Z,14.27
2023-01-26T04:23:45.497Z,12.77
2023-01-26T04:26:14.171Z,14.30
2023-01-26T04:28:43.395Z,13.60
2023-01-26T04:31:13.141Z,14.83
2023-01-26T04:33:43.041Z,15.83
2023-01-26T04:36:12.353Z,15.20
2023-01-26T04:38:45.911Z,13.50
2023-01-26T04:41:18.559Z,13.33
2023-01-26T04:43:51.824Z,13.50
2023-01-26T04:46:20.465Z,14.10
2023-01-26T04:48:50.515Z,14.30
2023-01-26T04:51:21.457Z,13.57
2023-01-26T04:53:51.406Z,13.00
2023-01-26T04:56:26.500Z,13.17
2023-01-26T04:58:56.274Z,12.40
2023-01-26T05:01:25.784Z,13.60
2023-01-26T05:03:56.200Z,13.83
2023-01-26T05:06:24.824Z,12.93
2023-01-26T05:08:53.971Z,13.17
2023-01-26T05:11:22.528Z,13.93
2023-01-26T05:14:15.392Z,12.50
2023-01-26T05:17:13.030Z,11.83
2023-01-26T05:20:00.036Z,14.47
2023-01-26T05:22:48.731Z,14.67
2023-01-26T05:25:52.678Z,14.20
2023-01-26T05:28:21.868Z,12.43
2023-01-26T05:30:50.328Z,14.03
2023-01-26T05:33:22.047Z,12.80
2023-01-26T05:35:53.210Z,12.70
2023-01-26T05:38:22.463Z,12.97
2023-01-26T05:40:51.083Z,13.77
2023-01-26T05:43:19.943Z,14.00
2023-01-26T05:46:17.327Z,13.50
2023-01-26T05:48:45.774Z,13.90
2023-01-26T05:51:15.689Z,14.07
2023-01-26T05:53:44.105Z,13.20
2023-01-26T05:56:13.180Z,11.97
2023-01-26T05:58:46.017Z,11.73
2023-01-26T06:01:14.538Z,12.70
2023-01-26T06:03:51.382Z,14.03
2023-01-26T06:06:21.556Z,12.50
2023-01-26T06:09:01.474Z,11.10
2023-01-26T06:11:34.468Z,12.47
2023-01-26T06:14:13.899Z,13.20
2023-01-26T06:16:42.740Z,13.30
2023-01-26T06:19:12.850Z,11.80
2023-01-26T06:21:43.912Z,10.57
2023-01-26T06:24:14.059Z,13.33
2023-01-26T06:26:42.622Z,11.63
2023-01-26T06:29:12.709Z,10.80
2023-01-26T06:31:42.364Z,11.97
2023-01-26T06:34:12.232Z,12.33
2023-01-26T06:36:44.605Z,11.00
2023-01-26T06:39:20.139Z,11.30
2023-01-26T06:41:49.084Z,11.47
2023-01-26T06:44:17.580Z,10.17
2023-01-26T06:46:46.619Z,13.87
2023-01-26T06:49:16.883Z,12.80
2023-01-26T06:51:59.100Z,14.07
2023-01-26T06:54:40.198Z,10.83
2023-01-26T06:57:23.694Z,10.50
2023-01-26T07:00:09.452Z,12.77
2023-01-26T07:02:54.428Z,12.20
2023-01-26T07:05:22.891Z,11.87
2023-01-26T07:07:52.703Z,12.10
2023-01-26T07:10:21.695Z,12.13
2023-01-26T07:12:50.258Z,11.70
2023-01-26T07:15:18.915Z,12.47
2023-01-26T07:17:47.372Z,12.60
2023-01-26T07:20:15.972Z,13.23
2023-01-26T07:22:44.535Z,13.80
2023-01-26T07:25:14.853Z,12.07
2023-01-26T07:27:43.369Z,11.83
2023-01-26T07:30:14.381Z,12.83
2023-01-26T07:32:43.213Z,15.07
2023-01-26T07:35:11.660Z,12.80
2023-01-26T07:37:40.190Z,12.47
2023-01-26T07:40:11.127Z,14.20
2023-01-26T07:42:41.132Z,13.90
2023-01-26T07:45:20.223Z,13.90
2023-01-26T07:47:48.637Z,13.30
2023-01-26T07:50:18.458Z,13.40
2023-01-26T07:52:46.916Z,12.10
2023-01-26T07:55:16.253Z,13.97
2023-01-26T07:57:49.529Z,12.77
2023-01-26T08:00:20.381Z,11.80
2023-01-26T08:02:51.711Z,13.00
2023-01-26T08:05:20.347Z,15.70
2023-01-26T08:07:49.491Z,14.30
2023-01-26T08:10:18.981Z,17.30
2023-01-26T08:12:48.982Z,15.97
2023-01-26T08:15:17.544Z,14.27
2023-01-26T08:17:46.022Z,16.43
2023-01-26T08:20:14.578Z,14.13
2023-01-26T08:22:43.303Z,15.97
2023-01-26T08:25:12.092Z,16.47
2023-01-26T08:27:40.714Z,17.33
2023-01-26T08:30:12.972Z,16.40
2023-01-26T08:32:41.669Z,16.77
2023-01-26T08:35:11.334Z,16.10
2023-01-26T08:37:39.795Z,16.90
2023-01-26T08:40:10.789Z,15.53
2023-01-26T08:42:39.409Z,14.37
2023-01-26T08:45:11.354Z,17.80
2023-01-26T08:47:39.781Z,14.90
2023-01-26T08:50:09.615Z,16.87
2023-01-26T08:52:38.556Z,16.00
2023-01-26T08:55:08.024Z,15.10
2023-01-26T08:57:36.505Z,16.83
2023-01-26T09:00:06.273Z,16.90
2023-01-26T09:02:36.195Z,16.10
2023-01-26T09:05:04.773Z,15.53
2023-01-26T09:07:33.309Z,16.60
2023-01-26T09:10:01.770Z,16.80
2023-01-26T09:12:30.179Z,14.83
2023-01-26T09:14:59.021Z,16.67
2023-01-26T09:17:27.351Z,15.50
2023-01-26T09:19:57.285Z,14.77
2023-01-26T09:22:25.811Z,15.90
2023-01-26T09:24:54.458Z,15.17
2023-01-26T09:27:23.152Z,13.50
2023-01-26T09:29:52.277Z,14.50
2023-01-26T09:32:21.557Z,13.03
2023-01-26T09:34:49.953Z,14.30
2023-01-26T09:37:19.759Z,14.07
2023-01-26T09:39:48.320Z,12.30
2023-01-26T09:42:41.685Z,13.27
2023-01-26T09:45:25.647Z,10.80
2023-01-26T09:48:10.672Z,11.10
2023-01-26T09:50:47.620Z,12.20
2023-01-26T09:53:24.899Z,11.50
2023-01-26T09:55:55.494Z,11.23
2023-01-26T09:58:35.688Z,10.80
2023-01-26T10:01:06.473Z,10.70
2023-01-26T10:03:42.630Z,11.60
2023-01-26T10:06:22.682Z,10.53
2023-01-26T10:09:21.763Z,9.30
2023-01-26T10:11:56.107Z,11.13
2023-01-26T10:14:37.466Z,10.27
2023-01-26T10:17:09.089Z,9.50
2023-01-26T10:19:43.711Z,8.77
2023-01-26T10:22:17.447Z,7.70
2023-01-26T10:24:52.707Z,7.40
2023-01-26T10:27:21.788Z,9.07
2023-01-26T10:29:50.321Z,8.20
2023-01-26T10:32:19.967Z,9.43
2023-01-26T10:34:51.160Z,7.60
2023-01-26T10:37:24.978Z,8.80
2023-01-26T10:40:03.935Z,9.47
2023-01-26T10:42:35.946Z,9.23
2023-01-26T10:45:08.152Z,8.30
2023-01-26T10:47:36.520Z,7.57
2023-01-26T10:50:25.087Z,3.87
2023-01-26T10:53:02.654Z,3.80
2023-01-26T10:55:36.423Z,3.00
2023-01-26T10:58:04.978Z,3.50
2023-01-26T11:00:36.672Z,3.50
2023-01-26T11:03:18.734Z,5.40
2023-01-26T11:05:48.259Z,5.13
2023-01-26T11:08:34.980Z,5.40
2023-01-26T11:11:07.700Z,5.03
2023-01-26T11:13:36.133Z,5.30
2023-01-26T11:16:12.101Z,6.30
2023-01-26T11:18:49.490Z,4.53
2023-01-26T11:21:27.795Z,4.57
2023-01-26T11:24:05.655Z,5.50
2023-01-26T11:27:24.748Z,7.30
2023-01-26T11:30:18.887Z,4.80
2023-01-26T11:32:58.503Z,4.63
2023-01-26T11:35:37.856Z,3.07
2023-01-26T11:38:37.598Z,5.33
2023-01-26T11:41:32.124Z,6.77
2023-01-26T11:44:26.900Z,5.90
2023-01-26T11:47:23.973Z,6.00
2023-01-26T11:50:24.776Z,4.87
2023-01-26T11:53:20.604Z,4.30
2023-01-26T11:56:07.163Z,4.13
2023-01-26T11:58:42.780Z,3.03
2023-01-26T12:01:20.476Z,3.23
2023-01-26T12:03:51.403Z,3.83
2023-01-26T12:06:26.225Z,2.40
2023-01-26T12:09:00.642Z,2.90
2023-01-26T12:11:36.844Z,1.97
2023-01-26T12:14:22.834Z,3.23
2023-01-26T12:17:29.202Z,3.00
2023-01-26T12:20:06.704Z,4.20
2023-01-26T12:22:38.228Z,3.83
2023-01-26T12:25:24.791Z,2.90
2023-01-26T12:28:04.018Z,2.40
2023-01-26T12:30:42.183Z,1.90
2023-01-26T12:33:12.867Z,2.70
2023-01-26T12:36:05.050Z,3.17
2023-01-26T12:38:50.833Z,2.40
2023-01-26T12:41:33.228Z,2.53
2023-01-26T12:44:18.953Z,3.60
2023-01-26T12:46:56.147Z,1.63
2023-01-26T12:49:33.342Z,2.60
2023-01-26T12:52:11.250Z,2.80
2023-01-26T12:54:46.498Z,1.80
2023-01-26T12:57:22.529Z,2.50
2023-01-26T12:59:52.471Z,1.87
2023-01-26T13:02:29.680Z,1.03
2023-01-26T13:05:01.928Z,1.60
2023-01-26T13:07:35.859Z,1.50
2023-01-26T13:10:45.053Z,1.70
2023-01-26T13:13:31.144Z,1.73
2023-01-26T13:16:34.910Z,1.90
2023-01-26T13:19:04.922Z,2.00
2023-01-26T13:21:52.501Z,1.50
2023-01-26T13:24:49.193Z,1.57
2023-01-26T13:27:35.800Z,1.67
2023-01-26T13:30:24.949Z,1.60
2023-01-26T13:33:05.838Z,1.50
2023-01-26T13:35:36.735Z,1.63
2023-01-26T13:38:15.685Z,1.80
2023-01-26T13:40:49.742Z,1.83
2023-01-26T13:43:30.444Z,1.50
2023-01-26T13:46:09.908Z,1.20
2023-01-26T13:48:48.425Z,1.90
2023-01-26T13:51:20.949Z,2.03
2023-01-26T13:54:00.003Z,2.10
2023-01-26T13:56:32.601Z,1.60
2023-01-26T13:59:11.559Z,1.90
2023-01-26T14:01:45.928Z,2.03
2023-01-26T14:04:21.133Z,1.57
2023-01-26T14:06:57.538Z,1.60
2023-01-26T14:09:29.534Z,2.37
2023-01-26T14:12:02.402Z,1.83
2023-01-26T14:14:34.754Z,3.00
2023-01-26T14:17:09.428Z,1.70
2023-01-26T14:19:43.296Z,1.70
2023-01-26T14:22:15.605Z,3.40
2023-01-26T14:24:44.176Z,1.20
2023-01-26T14:27:33.093Z,1.57
2023-01-26T14:30:02.197Z,1.20
2023-01-26T14:32:32.099Z,1.73
2023-01-26T14:35:02.280Z,1.50
2023-01-26T14:37:30.739Z,1.67
2023-01-26T14:40:21.485Z,1.83
2023-01-26T14:42:54.025Z,1.83
2023-01-26T14:45:31.420Z,1.33
2023-01-26T14:48:03.284Z,1.30
2023-01-26T14:50:33.877Z,1.43
2023-01-26T14:53:04.577Z,1.40
2023-01-26T14:55:36.228Z,1.20
2023-01-26T14:58:15.525Z,1.97
2023-01-26T15:00:48.294Z,1.00
2023-01-26T15:03:26.991Z,1.33
2023-01-26T15:06:23.651Z,1.10
2023-01-26T15:09:03.384Z,1.10
2023-01-26T15:11:55.375Z,1.10
2023-01-26T15:14:36.828Z,1.17
2023-01-26T15:17:06.438Z,1.57
2023-01-26T15:19:43.229Z,2.00
2023-01-26T15:22:24.095Z,1.53
2023-01-26T15:25:07.516Z,1.13
2023-01-26T15:27:37.873Z,1.10
2023-01-26T15:30:08.294Z,1.80
2023-01-26T15:32:41.251Z,1.60
2023-01-26T15:35:23.307Z,2.40
2023-01-26T15:38:03.368Z,1.60
2023-01-26T15:40:32.681Z,1.60
2023-01-26T15:43:13.587Z,1.40
2023-01-26T15:45:44.518Z,1.10
2023-01-26T15:48:12.934Z,1.43
2023-01-26T15:50:42.444Z,1.60
2023-01-26T15:53:14.766Z,1.53
2023-01-26T15:55:56.009Z,2.27
2023-01-26T15:58:25.985Z,2.80
2023-01-26T16:00:54.746Z,2.30
2023-01-26T16:03:26.549Z,2.83
2023-01-26T16:05:55.723Z,2.30
2023-01-26T16:08:27.420Z,4.03
2023-01-26T16:10:57.085Z,3.33
2023-01-26T16:13:25.911Z,2.93
2023-01-26T16:15:56.049Z,3.10
2023-01-26T16:18:24.623Z,3.60
2023-01-26T16:20:53.544Z,3.13
2023-01-26T16:23:26.171Z,3.67
2023-01-26T16:25:54.944Z,4.90
2023-01-26T16:28:24.455Z,7.30
2023-01-26T16:30:53.047Z,8.03
2023-01-26T16:33:22.159Z,7.40
2023-01-26T16:35:51.362Z,5.13
2023-01-26T16:38:20.615Z,6.90
2023-01-26T16:40:50.651Z,8.13
2023-01-26T16:43:24.011Z,7.60
2023-01-26T16:45:53.489Z,3.50
2023-01-26T16:48:23.632Z,3.97
2023-01-26T16:50:54.733Z,1.50
2023-01-26T16:53:28.908Z,2.23
2023-01-26T16:55:58.822Z,1.47
2023-01-26T16:58:27.698Z,1.27
2023-01-26T17:00:56.666Z,2.10
2023-01-26T17:03:25.752Z,1.27
2023-01-26T17:05:54.299Z,1.00
2023-01-26T17:08:23.075Z,1.40
2023-01-26T17:11:01.512Z,1.30
2023-01-26T17:13:32.457Z,1.90
2023-01-26T17:16:01.850Z,1.03
2023-01-26T17:18:33.418Z,1.50
2023-01-26T17:21:04.645Z,1.60
2023-01-26T17:23:33.633Z,1.20
2023-01-26T17:26:02.391Z,1.13
2023-01-26T17:28:32.443Z,1.33
2023-01-26T17:31:01.594Z,1.43
2023-01-26T17:33:30.893Z,1.43
2023-01-26T17:36:02.923Z,1.20
2023-01-26T17:38:31.606Z,1.33
2023-01-26T17:41:00.771Z,1.70
2023-01-26T17:43:32.704Z,1.50
2023-01-26T17:46:07.205Z,1.70
2023-01-26T17:48:37.538Z,2.57
2023-01-26T17:51:11.031Z,2.93
2023-01-26T17:53:40.892Z,9.30
2023-01-26T17:56:10.484Z,12.27
2023-01-26T17:58:41.756Z,14.80
2023-01-26T18:01:11.572Z,9.27
2023-01-26T18:03:43.737Z,3.80
2023-01-26T18:06:13.048Z,2.63
2023-01-26T18:08:44.050Z,1.40
2023-01-26T18:11:15.011Z,1.63
2023-01-26T18:13:45.441Z,1.93
2023-01-26T18:16:19.888Z,1.20
2023-01-26T18:18:51.764Z,1.57
2023-01-26T18:21:22.968Z,1.77
2023-01-26T18:23:54.316Z,1.73
2023-01-26T18:26:26.268Z,1.67
2023-01-26T18:28:56.745Z,1.50
2023-01-26T18:31:31.826Z,1.63
2023-01-26T18:34:02.679Z,1.30
2023-01-26T18:36:31.361Z,1.53
2023-01-26T18:39:02.768Z,1.63
2023-01-26T18:41:33.163Z,2.27
2023-01-26T18:44:04.293Z,1.50
2023-01-26T18:46:33.119Z,1.27
2023-01-26T18:49:03.683Z,1.80
2023-01-26T18:51:37.203Z,1.30
2023-01-26T18:54:06.091Z,1.50
2023-01-26T18:56:39.299Z,2.37
2023-01-26T18:59:10.812Z,3.60
2023-01-26T19:01:40.416Z,2.07
2023-01-26T19:04:08.954Z,1.87
2023-01-26T19:06:37.536Z,1.40
2023-01-26T19:09:09.195Z,1.80
2023-01-26T19:11:40.250Z,1.20
2023-01-26T19:14:10.374Z,2.00
2023-01-26T19:16:40.327Z,1.70
2023-01-26T19:19:13.488Z,2.10
2023-01-26T19:21:43.326Z,1.80
2023-01-26T19:24:12.020Z,1.90
2023-01-26T19:26:40.702Z,1.50
2023-01-26T19:29:12.374Z,1.30
2023-01-26T19:31:41.035Z,2.03
2023-01-26T19:34:14.401Z,1.50
2023-01-26T19:36:43.626Z,1.50
2023-01-26T19:39:13.772Z,1.50
2023-01-26T19:41:46.853Z,2.03
2023-01-26T19:44:16.851Z,2.13
2023-01-26T19:46:47.693Z,2.30
2023-01-26T19:49:17.534Z,2.90
2023-01-26T19:51:45.973Z,5.47
2023-01-26T19:54:15.333Z,6.03
2023-01-26T19:56:43.731Z,3.60
2023-01-26T19:59:14.732Z,2.20
2023-01-26T20:01:44.585Z,1.90
2023-01-26T20:04:15.852Z,1.93
2023-01-26T20:06:44.330Z,1.47
2023-01-26T20:09:14.084Z,1.20
2023-01-26T20:11:42.880Z,1.87
2023-01-26T20:14:12.776Z,1.70
2023-01-26T20:16:41.498Z,1.63
2023-01-26T20:19:13.647Z,1.20
2023-01-26T20:21:42.981Z,1.30
2023-01-26T20:24:14.848Z,1.47
2023-01-26T20:26:44.554Z,1.77
2023-01-26T20:29:14.982Z,2.40
2023-01-26T20:31:44.101Z,1.70
2023-01-26T20:34:14.907Z,1.70
2023-01-26T20:36:45.181Z,2.07
2023-01-26T20:39:17.694Z,1.50
2023-01-26T20:41:46.343Z,1.80
2023-01-26T20:44:15.167Z,1.60
2023-01-26T20:46:44.219Z,1.70
2023-01-26T20:49:18.704Z,1.60
2023-01-26T20:51:47.773Z,1.90
2023-01-26T20:54:18.202Z,1.97
2023-01-26T20:56:48.114Z,1.83
2023-01-26T20:59:16.679Z,1.70
2023-01-26T21:01:45.722Z,2.43
2023-01-26T21:04:15.783Z,2.10
2023-01-26T21:06:45.091Z,2.20
2023-01-26T21:09:13.759Z,2.70
2023-01-26T21:11:42.381Z,2.77
2023-01-26T21:14:13.771Z,1.80
2023-01-26T21:16:42.759Z,1.80
2023-01-26T21:19:12.265Z,1.43
2023-01-26T21:21:42.398Z,2.57
2023-01-26T21:24:11.722Z,1.80
2023-01-26T21:26:51.031Z,1.97
2023-01-26T21:29:19.833Z,2.00
2023-01-26T21:31:52.160Z,2.00
2023-01-26T21:34:21.179Z,1.93
2023-01-26T21:36:51.065Z,1.87
2023-01-26T21:39:22.289Z,2.37
2023-01-26T21:41:57.612Z,2.00
2023-01-26T21:44:28.580Z,2.30
2023-01-26T21:46:59.860Z,2.30
2023-01-26T21:49:29.585Z,2.40
2023-01-26T21:52:17.669Z,1.77
2023-01-26T21:54:46.047Z,1.87
2023-01-26T21:57:32.175Z,1.80
2023-01-26T22:00:01.425Z,3.00
2023-01-26T22:02:29.937Z,2.33
2023-01-26T22:04:58.569Z,1.63
2023-01-26T22:07:32.139Z,2.90
2023-01-26T22:10:00.723Z,2.00
2023-01-26T22:12:30.041Z,2.27
2023-01-26T22:14:58.613Z,2.10
2023-01-26T22:17:27.101Z,2.30
2023-01-26T22:19:56.609Z,1.77
2023-01-26T22:22:28.365Z,1.83
2023-01-26T22:24:58.206Z,1.70
2023-01-26T22:27:26.935Z,1.90
2023-01-26T22:29:55.406Z,2.23
2023-01-26T22:32:26.222Z,2.20
2023-01-26T22:34:55.143Z,2.10
2023-01-26T22:37:24.677Z,1.53
2023-01-26T22:39:54.529Z,1.90
2023-01-26T22:42:23.294Z,2.03
2023-01-26T22:44:53.684Z,2.47
2023-01-26T22:47:24.740Z,2.07
2023-01-26T22:49:53.440Z,2.20
2023-01-26T22:52:22.056Z,2.00
2023-01-26T22:54:51.992Z,2.80
2023-01-26T22:57:22.056Z,2.27
2023-01-26T22:59:52.927Z,3.63
2023-01-26T23:02:22.003Z,2.17
2023-01-26T23:04:50.390Z,2.00
2023-01-26T23:07:18.884Z,2.27
2023-01-26T23:09:49.433Z,2.30
2023-01-26T23:12:17.887Z,2.57
2023-01-26T23:14:50.921Z,2.23
2023-01-26T23:17:19.913Z,2.13
2023-01-26T23:19:52.233Z,2.20
2023-01-26T23:22:21.028Z,3.73
2023-01-26T23:25:10.020Z,2.37
2023-01-26T23:27:38.607Z,1.97
2023-01-26T23:30:10.831Z,2.23
2023-01-26T23:32:39.699Z,2.40
2023-01-26T23:35:08.954Z,3.47
2023-01-26T23:37:37.331Z,1.80
2023-01-26T23:40:07.306Z,2.13
2023-01-26T23:42:45.287Z,2.47
2023-01-26T23:45:25.929Z,2.00
2023-01-26T23:47:54.609Z,2.57
2023-01-26T23:50:23.339Z,1.87
2023-01-26T23:52:51.861Z,1.57
2023-01-26T23:55:20.474Z,2.13
2023-01-26T23:57:49.101Z,1.63
